createdAt,value
2023-03-06T00:00:54.449Z,11.70
2023-03-06T00:03:22.365Z,11.40
2023-03-06T00:05:52.473Z,12.70
2023-03-06T00:08:21.050Z,11.60
2023-03-06T00:10:48.112Z,10.80
2023-03-06T00:13:18.689Z,11.60
2023-03-06T00:15:46.940Z,10.10
2023-03-06T00:18:14.627Z,10.80
2023-03-06T00:20:43.463Z,9.80
2023-03-06T00:23:11.017Z,9.10
2023-03-06T00:25:41.948Z,9.60
2023-03-06T00:28:08.582Z,9.50
2023-03-06T00:30:35.523Z,10.20
2023-03-06T00:33:02.437Z,9.00
2023-03-06T00:35:29.517Z,9.80
2023-03-06T00:37:59.092Z,9.60
2023-03-06T00:40:26.733Z,10.00
2023-03-06T00:42:53.656Z,9.40
2023-03-06T00:45:20.531Z,10.20
2023-03-06T00:47:47.406Z,9.10
2023-03-06T00:50:14.672Z,9.80
2023-03-06T00:52:41.565Z,9.50
2023-03-06T00:55:09.840Z,9.80
2023-03-06T00:57:36.871Z,9.10
2023-03-06T01:00:05.602Z,10.40
2023-03-06T01:02:32.673Z,9.00
2023-03-06T01:04:59.590Z,9.60
2023-03-06T01:07:27.341Z,9.80
2023-03-06T01:09:54.116Z,9.00
2023-03-06T01:12:23.505Z,7.70
2023-03-06T01:14:50.955Z,8.90
2023-03-06T01:17:17.673Z,8.20
2023-03-06T01:19:44.602Z,8.80
2023-03-06T01:22:13.350Z,8.60
2023-03-06T01:24:40.047Z,9.60
2023-03-06T01:27:06.732Z,8.80
2023-03-06T01:29:33.641Z,8.40
2023-03-06T01:32:00.562Z,9.20
2023-03-06T01:34:27.441Z,7.40
2023-03-06T01:36:54.295Z,8.20
2023-03-06T01:39:24.397Z,8.80
2023-03-06T01:41:51.128Z,7.80
2023-03-06T01:44:17.936Z,8.20
2023-03-06T01:46:45.952Z,8.30
2023-03-06T01:49:19.658Z,7.10
2023-03-06T01:51:59.610Z,7.30
2023-03-06T01:54:31.055Z,8.70
2023-03-06T01:57:09.151Z,8.60
2023-03-06T01:59:37.960Z,8.50
2023-03-06T02:02:08.259Z,7.70
2023-03-06T02:04:38.495Z,7.10
2023-03-06T02:07:07.078Z,8.30
2023-03-06T02:09:36.090Z,8.00
2023-03-06T02:12:07.847Z,8.60
2023-03-06T02:14:34.995Z,8.80
2023-03-06T02:17:02.503Z,8.20
2023-03-06T02:19:44.706Z,7.30
2023-03-06T02:22:11.381Z,7.50
2023-03-06T02:25:01.427Z,6.90
2023-03-06T02:27:29.131Z,6.90
2023-03-06T02:29:56.002Z,7.00
2023-03-06T02:32:22.971Z,7.00
2023-03-06T02:34:54.334Z,6.70
2023-03-06T02:37:22.982Z,5.60
2023-03-06T02:39:57.339Z,7.60
2023-03-06T02:42:28.227Z,6.10
2023-03-06T02:44:56.938Z,7.10
2023-03-06T02:47:23.996Z,8.00
2023-03-06T02:49:51.028Z,8.30
2023-03-06T02:52:17.822Z,8.50
2023-03-06T02:54:44.500Z,8.60
2023-03-06T02:57:11.928Z,8.10
2023-03-06T02:59:39.112Z,7.30
2023-03-06T03:02:06.190Z,5.70
2023-03-06T03:04:34.297Z,7.00
2023-03-06T03:07:00.984Z,7.70
2023-03-06T03:09:28.056Z,7.50
2023-03-06T03:11:54.908Z,8.10
2023-03-06T03:14:24.036Z,7.10
2023-03-06T03:16:51.668Z,7.20
2023-03-06T03:19:18.422Z,8.10
2023-03-06T03:21:45.293Z,6.40
2023-03-06T03:24:12.376Z,8.00
2023-03-06T03:26:39.130Z,6.90
2023-03-06T03:29:10.177Z,7.20
2023-03-06T03:31:36.956Z,8.10
2023-03-06T03:34:03.858Z,6.60
2023-03-06T03:36:32.778Z,7.90
2023-03-06T03:38:59.877Z,7.80
2023-03-06T03:41:26.978Z,7.70
2023-03-06T03:43:53.568Z,8.70
2023-03-06T03:46:20.965Z,7.40
2023-03-06T03:48:48.388Z,8.60
2023-03-06T03:51:17.194Z,7.30
2023-03-06T03:53:47.488Z,7.60
2023-03-06T03:56:16.230Z,8.60
2023-03-06T03:58:50.311Z,6.50
2023-03-06T04:01:17.701Z,9.40
2023-03-06T04:03:44.839Z,7.50
2023-03-06T04:06:12.452Z,7.90
2023-03-06T04:08:39.342Z,7.90
2023-03-06T04:11:06.169Z,10.10
2023-03-06T04:13:33.248Z,9.80
2023-03-06T04:16:00.598Z,8.00
2023-03-06T04:18:28.048Z,7.70
2023-03-06T04:20:57.753Z,8.50
2023-03-06T04:23:24.908Z,7.10
2023-03-06T04:25:52.088Z,11.50
2023-03-06T04:28:19.526Z,10.10
2023-03-06T04:30:46.580Z,6.60
2023-03-06T04:33:13.744Z,9.00
2023-03-06T04:35:40.982Z,9.10
2023-03-06T04:38:11.670Z,9.40
2023-03-06T04:40:38.513Z,7.40
2023-03-06T04:43:05.854Z,8.70
2023-03-06T04:45:33.919Z,7.90
2023-03-06T04:48:00.717Z,6.90
2023-03-06T04:50:31.840Z,8.70
2023-03-06T04:53:00.939Z,8.10
2023-03-06T04:55:28.501Z,7.20
2023-03-06T04:57:55.577Z,7.90
2023-03-06T05:00:29.729Z,7.70
2023-03-06T05:03:01.135Z,6.60
2023-03-06T05:05:28.664Z,7.70
2023-03-06T05:07:56.054Z,6.90
2023-03-06T05:10:23.381Z,7.50
2023-03-06T05:12:50.671Z,8.80
2023-03-06T05:15:17.540Z,6.50
2023-03-06T05:17:45.547Z,7.40
2023-03-06T05:20:13.821Z,8.60
2023-03-06T05:22:41.045Z,7.30
2023-03-06T05:25:10.063Z,7.20
2023-03-06T05:27:37.415Z,7.60
2023-03-06T05:30:04.517Z,6.40
2023-03-06T05:32:32.425Z,8.00
2023-03-06T05:35:00.791Z,8.50
2023-03-06T05:37:27.506Z,10.50
2023-03-06T05:39:54.233Z,10.80
2023-03-06T05:42:21.099Z,10.90
2023-03-06T05:44:47.633Z,12.60
2023-03-06T05:47:14.457Z,12.70
2023-03-06T05:49:41.936Z,15.30
2023-03-06T05:52:08.756Z,11.00
2023-03-06T05:54:37.148Z,10.00
2023-03-06T05:57:04.678Z,10.20
2023-03-06T05:59:32.439Z,9.70
2023-03-06T06:02:00.715Z,10.90
2023-03-06T06:04:27.637Z,11.60
2023-03-06T06:06:59.273Z,10.60
2023-03-06T06:09:26.847Z,9.60
2023-03-06T06:11:59.116Z,9.80
2023-03-06T06:14:25.874Z,10.00
2023-03-06T06:16:52.754Z,9.70
2023-03-06T06:19:20.338Z,10.00
2023-03-06T06:21:49.756Z,10.60
2023-03-06T06:24:22.088Z,10.30
2023-03-06T06:26:54.846Z,10.90
2023-03-06T06:29:23.042Z,9.00
2023-03-06T06:31:51.057Z,12.50
2023-03-06T06:34:18.222Z,12.20
2023-03-06T06:36:45.215Z,11.20
2023-03-06T06:39:14.893Z,12.10
2023-03-06T06:41:59.384Z,11.60
2023-03-06T06:44:29.177Z,13.10
2023-03-06T06:49:43.046Z,11.40
2023-03-06T06:52:10.036Z,10.00
2023-03-06T06:54:37.010Z,11.60
2023-03-06T06:57:03.991Z,11.30
2023-03-06T06:59:30.771Z,12.10
2023-03-06T07:01:57.385Z,10.60
2023-03-06T07:04:24.312Z,11.40
2023-03-06T07:06:54.203Z,11.70
2023-03-06T07:09:21.716Z,10.50
2023-03-06T07:11:48.807Z,11.80
2023-03-06T07:14:15.810Z,10.50
2023-03-06T07:16:42.346Z,10.30
2023-03-06T07:19:09.348Z,12.00
2023-03-06T07:21:35.993Z,11.00
2023-03-06T07:24:02.935Z,10.00
2023-03-06T07:26:30.405Z,10.20
2023-03-06T07:28:57.994Z,9.90
2023-03-06T07:31:26.714Z,9.10
2023-03-06T07:33:54.809Z,9.50
2023-03-06T07:36:23.180Z,9.50
2023-03-06T07:38:49.867Z,6.30
2023-03-06T07:41:19.770Z,9.10
2023-03-06T07:43:48.102Z,10.30
2023-03-06T07:46:14.972Z,8.80
2023-03-06T07:48:42.541Z,7.10
2023-03-06T07:51:20.787Z,9.40
2023-03-06T07:53:48.775Z,8.30
2023-03-06T07:56:16.285Z,7.90
2023-03-06T07:58:44.974Z,7.30
2023-03-06T08:01:16.377Z,8.70
2023-03-06T08:03:43.562Z,8.10
2023-03-06T08:06:16.819Z,8.70
2023-03-06T08:08:45.858Z,8.00
2023-03-06T08:11:14.662Z,8.60
2023-03-06T08:13:42.053Z,6.50
2023-03-06T08:16:09.677Z,8.40
2023-03-06T08:18:38.983Z,7.60
2023-03-06T08:21:11.677Z,7.30
2023-03-06T08:23:39.696Z,6.70
2023-03-06T08:26:10.212Z,4.90
2023-03-06T08:28:37.029Z,5.50
2023-03-06T08:31:23.387Z,5.20
2023-03-06T08:33:50.152Z,6.40
2023-03-06T08:36:17.029Z,4.90
2023-03-06T08:38:43.696Z,5.00
2023-03-06T08:41:10.344Z,5.30
2023-03-06T08:43:37.280Z,6.60
2023-03-06T08:46:04.278Z,5.00
2023-03-06T08:48:31.216Z,4.90
2023-03-06T08:50:58.114Z,5.10
2023-03-06T08:53:40.471Z,3.70
2023-03-06T08:56:17.885Z,4.40
2023-03-06T08:58:45.070Z,4.90
2023-03-06T09:01:31.864Z,5.00
2023-03-06T09:04:01.338Z,5.40
2023-03-06T09:06:31.694Z,5.50
2023-03-06T09:08:59.417Z,6.60
2023-03-06T09:11:27.313Z,5.50
2023-03-06T09:13:54.611Z,6.30
2023-03-06T09:16:21.912Z,4.60
2023-03-06T09:18:52.242Z,5.00
2023-03-06T09:21:23.439Z,5.40
2023-03-06T09:23:50.781Z,4.90
2023-03-06T09:26:18.071Z,4.90
2023-03-06T09:28:45.895Z,4.40
2023-03-06T09:31:17.754Z,3.30
2023-03-06T09:33:44.977Z,3.20
2023-03-06T09:36:18.669Z,2.80
2023-03-06T09:38:47.637Z,2.20
2023-03-06T09:41:34.927Z,2.30
2023-03-06T09:44:04.928Z,2.90
2023-03-06T09:46:46.960Z,2.10
2023-03-06T09:49:34.778Z,2.70
2023-03-06T09:52:04.492Z,4.20
2023-03-06T09:54:43.485Z,3.50
2023-03-06T09:57:35.208Z,3.80
2023-03-06T10:00:14.029Z,4.60
2023-03-06T10:02:49.852Z,3.10
2023-03-06T10:05:21.387Z,5.80
2023-03-06T10:08:16.919Z,4.70
2023-03-06T10:10:50.396Z,4.60
2023-03-06T10:13:26.366Z,3.60
2023-03-06T10:16:02.787Z,4.90
2023-03-06T10:18:29.719Z,4.30
2023-03-06T10:21:18.434Z,4.30
2023-03-06T10:23:54.678Z,4.70
2023-03-06T10:26:31.959Z,2.70
2023-03-06T10:28:59.060Z,4.30
2023-03-06T10:31:27.502Z,3.50
2023-03-06T10:34:11.335Z,4.20
2023-03-06T10:36:38.086Z,4.80
2023-03-06T10:39:14.615Z,5.50
2023-03-06T10:41:41.613Z,2.60
2023-03-06T10:44:09.103Z,2.20
2023-03-06T10:46:44.642Z,1.60
2023-03-06T10:49:23.305Z,2.60
2023-03-06T10:52:02.261Z,4.10
2023-03-06T10:54:34.911Z,2.20
2023-03-06T10:57:26.350Z,1.50
2023-03-06T11:00:05.560Z,1.90
2023-03-06T11:02:39.114Z,1.00
2023-03-06T11:05:18.848Z,3.20
2023-03-06T11:08:00.213Z,3.20
2023-03-06T11:10:29.930Z,2.50
2023-03-06T11:13:17.291Z,3.30
2023-03-06T11:15:59.838Z,1.40
2023-03-06T11:18:42.495Z,3.50
2023-03-06T11:21:31.921Z,3.40
2023-03-06T11:24:20.346Z,2.50
2023-03-06T11:26:56.109Z,2.60
2023-03-06T11:29:37.512Z,4.00
2023-03-06T11:32:27.249Z,3.70
2023-03-06T11:34:59.450Z,3.20
2023-03-06T11:37:45.904Z,2.80
2023-03-06T11:40:20.604Z,2.30
2023-03-06T11:43:33.290Z,2.30
2023-03-06T11:46:10.166Z,2.40
2023-03-06T11:48:52.385Z,4.60
2023-03-06T11:51:27.544Z,4.50
2023-03-06T11:53:54.754Z,3.80
2023-03-06T11:56:52.015Z,4.70
2023-03-06T11:59:37.152Z,5.00
2023-03-06T12:02:26.224Z,6.30
2023-03-06T12:04:59.920Z,3.50
2023-03-06T12:07:38.674Z,5.50
2023-03-06T12:10:11.158Z,6.30
2023-03-06T12:12:57.322Z,6.60
2023-03-06T12:15:27.204Z,7.40
2023-03-06T12:18:36.095Z,7.50
2023-03-06T12:21:11.164Z,6.80
2023-03-06T12:23:59.493Z,8.30
2023-03-06T12:26:38.461Z,7.40
2023-03-06T12:29:42.836Z,8.50
2023-03-06T12:32:36.506Z,8.00
2023-03-06T12:35:25.081Z,8.00
2023-03-06T12:38:00.991Z,8.50
2023-03-06T12:40:39.182Z,8.50
2023-03-06T12:43:40.358Z,7.40
2023-03-06T12:46:19.939Z,8.00
2023-03-06T12:49:11.241Z,8.60
2023-03-06T12:51:39.805Z,7.20
2023-03-06T12:54:06.847Z,8.20
2023-03-06T12:56:34.927Z,8.00
2023-03-06T12:59:02.146Z,7.80
2023-03-06T13:01:48.157Z,8.30
2023-03-06T13:04:55.444Z,6.50
2023-03-06T13:07:52.107Z,6.60
2023-03-06T13:10:35.857Z,5.50
2023-03-06T13:13:31.604Z,6.50
2023-03-06T13:16:12.254Z,5.10
2023-03-06T13:18:42.075Z,6.30
2023-03-06T13:22:00.108Z,7.10
2023-03-06T13:24:40.604Z,9.80
2023-03-06T13:27:11.899Z,6.30
2023-03-06T13:29:38.593Z,7.30
2023-03-06T13:32:16.349Z,9.60
2023-03-06T13:34:46.373Z,6.40
2023-03-06T13:37:13.082Z,5.80
2023-03-06T13:39:52.022Z,7.30
2023-03-06T13:42:53.242Z,7.40
2023-03-06T13:45:42.589Z,7.70
2023-03-06T13:48:44.391Z,9.30
2023-03-06T13:51:24.171Z,6.20
2023-03-06T13:54:11.646Z,7.30
2023-03-06T13:56:54.201Z,8.60
2023-03-06T13:59:39.671Z,9.30
2023-03-06T14:02:22.379Z,11.20
2023-03-06T14:04:58.686Z,14.30
2023-03-06T14:07:31.758Z,14.20
2023-03-06T14:10:03.904Z,15.20
2023-03-06T14:12:35.538Z,13.90
2023-03-06T14:15:17.705Z,13.70
2023-03-06T14:18:05.083Z,12.50
2023-03-06T14:20:41.747Z,12.80
2023-03-06T14:23:20.818Z,13.50
2023-03-06T14:25:54.463Z,15.60
2023-03-06T14:28:23.929Z,15.30
2023-03-06T14:30:52.624Z,16.40
2023-03-06T14:33:31.452Z,13.30
2023-03-06T14:36:02.227Z,14.80
2023-03-06T14:38:34.185Z,16.40
2023-03-06T14:41:02.682Z,16.00
2023-03-06T14:43:31.400Z,16.60
2023-03-06T14:46:01.976Z,16.50
2023-03-06T14:48:44.493Z,14.20
2023-03-06T14:51:18.968Z,15.80
2023-03-06T14:53:48.618Z,14.80
2023-03-06T14:56:20.807Z,15.40
2023-03-06T14:59:01.133Z,13.30
2023-03-06T15:01:38.168Z,13.90
2023-03-06T15:04:43.930Z,14.40
2023-03-06T15:07:17.864Z,14.20
2023-03-06T15:09:49.154Z,13.90
2023-03-06T15:12:22.327Z,13.20
2023-03-06T15:14:55.358Z,13.10
2023-03-06T15:17:24.247Z,13.10
2023-03-06T15:19:54.050Z,13.90
2023-03-06T15:22:30.993Z,16.50
2023-03-06T15:25:08.169Z,16.60
2023-03-06T15:27:35.163Z,17.50
2023-03-06T15:30:13.305Z,18.50
2023-03-06T15:32:42.545Z,17.60
2023-03-06T15:35:52.273Z,15.80
2023-03-06T15:38:44.399Z,15.60
2023-03-06T15:41:30.820Z,15.60
2023-03-06T15:43:59.595Z,16.40
2023-03-06T15:46:27.130Z,17.70
2023-03-06T15:48:58.227Z,17.60
2023-03-06T15:51:25.309Z,17.10
2023-03-06T15:53:55.004Z,17.20
2023-03-06T15:56:32.069Z,17.50
2023-03-06T15:59:00.782Z,18.00
2023-03-06T16:01:27.981Z,17.20
2023-03-06T16:03:55.519Z,17.30
2023-03-06T16:06:24.139Z,17.20
2023-03-06T16:08:51.696Z,16.00
2023-03-06T16:11:43.317Z,16.30
2023-03-06T16:14:34.726Z,16.10
2023-03-06T16:17:02.644Z,15.90
2023-03-06T16:19:29.991Z,15.00
2023-03-06T16:21:57.143Z,16.20
2023-03-06T16:24:25.710Z,16.60
2023-03-06T16:26:54.388Z,17.20
2023-03-06T16:29:23.954Z,15.30
2023-03-06T16:31:51.530Z,17.70
2023-03-06T16:34:21.534Z,17.60
2023-03-06T16:36:49.006Z,18.80
2023-03-06T16:39:18.252Z,14.60
2023-03-06T16:41:49.040Z,17.40
2023-03-06T16:44:16.140Z,16.80
2023-03-06T16:46:45.473Z,15.00
2023-03-06T16:49:17.614Z,17.10
2023-03-06T16:51:44.922Z,17.10
2023-03-06T16:54:12.365Z,16.30
2023-03-06T16:56:39.221Z,18.50
2023-03-06T16:59:06.033Z,17.10
2023-03-06T17:01:33.414Z,17.80
2023-03-06T17:04:00.299Z,17.70
2023-03-06T17:06:28.011Z,17.40
2023-03-06T17:08:57.510Z,18.30
2023-03-06T17:11:24.555Z,20.00
2023-03-06T17:13:51.819Z,21.20
2023-03-06T17:16:18.751Z,22.20
2023-03-06T17:18:47.327Z,18.70
2023-03-06T17:21:17.444Z,18.20
2023-03-06T17:23:44.669Z,17.50
2023-03-06T17:26:18.221Z,17.50
2023-03-06T17:28:46.580Z,16.40
2023-03-06T17:31:17.462Z,16.20
2023-03-06T17:33:45.880Z,15.40
2023-03-06T17:36:16.910Z,14.30
2023-03-06T17:38:44.357Z,16.50
2023-03-06T17:41:12.562Z,15.00
2023-03-06T17:43:40.038Z,16.70
2023-03-06T17:46:08.930Z,16.60
2023-03-06T17:48:36.732Z,14.40
2023-03-06T17:51:03.952Z,14.20
2023-03-06T17:53:31.232Z,14.90
2023-03-06T17:55:59.122Z,14.40
2023-03-06T17:58:26.841Z,15.40
2023-03-06T18:00:54.018Z,15.20
2023-03-06T18:03:22.523Z,16.20
2023-03-06T18:06:03.887Z,16.90
2023-03-06T18:08:31.719Z,18.20
2023-03-06T18:10:59.943Z,15.80
2023-03-06T18:13:26.834Z,15.20
2023-03-06T18:15:54.034Z,13.30
2023-03-06T18:18:20.952Z,14.30
2023-03-06T18:20:48.045Z,14.20
2023-03-06T18:23:15.624Z,13.80
2023-03-06T18:25:43.475Z,13.40
2023-03-06T18:28:10.528Z,13.10
2023-03-06T18:30:40.833Z,14.10
2023-03-06T18:33:08.344Z,13.00
2023-03-06T18:35:36.268Z,13.20
2023-03-06T18:38:03.540Z,12.90
2023-03-06T18:40:30.358Z,13.00
2023-03-06T18:42:57.352Z,12.60
2023-03-06T18:45:24.800Z,12.40
2023-03-06T18:47:51.734Z,15.50
2023-03-06T18:50:18.814Z,10.80
2023-03-06T18:52:46.248Z,8.60
2023-03-06T18:55:13.135Z,8.30
2023-03-06T18:57:40.525Z,9.50
2023-03-06T19:00:08.491Z,8.60
2023-03-06T19:02:36.873Z,8.50
2023-03-06T19:05:04.849Z,8.10
2023-03-06T19:07:31.828Z,8.30
2023-03-06T19:09:58.803Z,8.80
2023-03-06T19:12:28.558Z,8.40
2023-03-06T19:14:56.469Z,7.40
2023-03-06T19:17:24.939Z,8.70
2023-03-06T19:19:52.034Z,9.00
2023-03-06T19:22:19.319Z,7.70
2023-03-06T19:24:47.772Z,6.30
2023-03-06T19:27:15.001Z,5.80
2023-03-06T19:29:42.502Z,5.70
2023-03-06T19:32:10.848Z,4.00
2023-03-06T19:34:38.262Z,3.50
2023-03-06T19:37:05.684Z,5.00
2023-03-06T19:39:32.520Z,4.40
2023-03-06T19:41:59.381Z,3.60
2023-03-06T19:44:26.564Z,3.70
2023-03-06T19:46:53.323Z,4.00
2023-03-06T19:49:21.801Z,4.20
2023-03-06T19:51:48.909Z,5.50
2023-03-06T19:54:16.510Z,5.20
2023-03-06T19:56:44.031Z,6.30
2023-03-06T19:59:11.006Z,6.30
2023-03-06T20:01:38.198Z,7.00
2023-03-06T20:04:05.497Z,6.70
2023-03-06T20:06:36.111Z,8.70
2023-03-06T20:09:06.417Z,7.70
2023-03-06T20:11:33.615Z,8.30
2023-03-06T20:14:02.527Z,7.30
2023-03-06T20:16:29.945Z,7.50
2023-03-06T20:18:59.601Z,7.20
2023-03-06T20:21:28.980Z,5.80
2023-03-06T20:23:57.613Z,6.90
2023-03-06T20:26:26.306Z,6.30
2023-03-06T20:28:54.276Z,5.80
2023-03-06T20:31:24.154Z,5.90
2023-03-06T20:33:52.946Z,6.70
2023-03-06T20:36:27.464Z,6.40
2023-03-06T20:38:55.051Z,5.60
2023-03-06T20:41:24.383Z,6.40
2023-03-06T20:43:51.969Z,5.60
2023-03-06T20:46:20.122Z,5.50
2023-03-06T20:48:49.166Z,6.10
2023-03-06T20:51:17.415Z,8.00
2023-03-06T20:53:46.770Z,7.30
2023-03-06T20:56:15.341Z,6.70
2023-03-06T20:58:43.001Z,6.20
2023-03-06T21:01:23.856Z,6.30
2023-03-06T21:03:51.773Z,7.00
2023-03-06T21:06:20.823Z,6.90
2023-03-06T21:08:47.833Z,6.40
2023-03-06T21:11:16.119Z,6.80
2023-03-06T21:13:43.424Z,6.90
2023-03-06T21:16:13.729Z,6.20
2023-03-06T21:18:41.120Z,6.40
2023-03-06T21:21:14.537Z,6.40
2023-03-06T21:23:42.184Z,7.40
2023-03-06T21:26:14.306Z,8.10
2023-03-06T21:28:41.583Z,8.80
2023-03-06T21:31:10.932Z,8.80
2023-03-06T21:33:38.150Z,8.10
2023-03-06T21:36:06.208Z,8.10
2023-03-06T21:38:34.545Z,7.70
2023-03-06T21:41:16.591Z,8.10
2023-03-06T21:43:44.017Z,8.10
2023-03-06T21:46:11.617Z,6.90
2023-03-06T21:48:38.547Z,7.50
2023-03-06T21:51:11.211Z,8.50
2023-03-06T21:53:41.628Z,8.80
2023-03-06T21:56:09.916Z,7.90
2023-03-06T21:58:37.275Z,7.80
2023-03-06T22:01:12.315Z,7.40
2023-03-06T22:03:39.979Z,7.50
2023-03-06T22:06:18.179Z,7.70
2023-03-06T22:08:46.201Z,7.00
2023-03-06T22:11:16.465Z,7.00
2023-03-06T22:13:45.158Z,6.40
2023-03-06T22:16:12.485Z,7.50
2023-03-06T22:18:39.625Z,7.30
2023-03-06T22:21:11.731Z,8.50
2023-03-06T22:23:40.080Z,8.10
2023-03-06T22:26:18.244Z,8.40
2023-03-06T22:28:45.755Z,7.70
2023-03-06T22:31:23.653Z,7.70
2023-03-06T22:33:52.810Z,8.60
2023-03-06T22:36:21.485Z,9.10
2023-03-06T22:38:52.309Z,9.40
2023-03-06T22:41:19.913Z,8.30
2023-03-06T22:43:47.246Z,8.80
2023-03-06T22:46:16.535Z,8.80
2023-03-06T22:48:44.172Z,9.20
2023-03-06T22:51:17.087Z,9.50
2023-03-06T22:53:45.029Z,9.00
2023-03-06T22:56:15.049Z,10.60
2023-03-06T22:58:44.216Z,10.40
2023-03-06T23:01:16.970Z,11.80
2023-03-06T23:03:47.102Z,11.30
2023-03-06T23:06:19.412Z,11.30
2023-03-06T23:08:53.648Z,14.30
2023-03-06T23:11:21.816Z,12.30
2023-03-06T23:14:07.911Z,13.80
2023-03-06T23:16:53.678Z,13.10
2023-03-06T23:19:39.735Z,11.60
2023-03-06T23:22:25.607Z,13.10
2023-03-06T23:25:11.022Z,11.70
2023-03-06T23:27:38.056Z,13.00
2023-03-06T23:30:10.119Z,11.30
2023-03-06T23:32:37.127Z,12.90
2023-03-06T23:35:04.248Z,12.90
2023-03-06T23:37:31.083Z,13.80
2023-03-06T23:39:58.354Z,13.20
2023-03-06T23:42:25.189Z,13.10
2023-03-06T23:44:51.818Z,13.50
2023-03-06T23:47:19.614Z,13.80
2023-03-06T23:49:46.478Z,12.90
2023-03-06T23:52:13.352Z,12.10
2023-03-06T23:54:40.206Z,12.10
2023-03-06T23:57:07.029Z,12.80
2023-03-06T23:59:33.760Z,11.50
